createdAt,value
2023-02-16T00:02:30.624Z,102158.66
2023-02-16T00:05:25.081Z,102163.53
2023-02-16T00:08:11.514Z,102159.38
2023-02-16T00:11:17.064Z,102152.75
2023-02-16T00:14:04.756Z,102163.28
2023-02-16T00:16:51.645Z,102166.81
2023-02-16T00:19:40.359Z,102165.69
2023-02-16T00:22:27.059Z,102157.50
2023-02-16T00:25:13.676Z,102166.44
2023-02-16T00:28:02.667Z,102164.94
2023-02-16T00:30:50.156Z,102160.47
2023-02-16T00:33:36.957Z,102162.88
2023-02-16T00:36:23.336Z,102155.66
2023-02-16T00:39:09.747Z,102159.56
2023-02-16T00:41:59.102Z,102152.00
2023-02-16T00:44:49.688Z,102148.00
2023-02-16T00:47:38.255Z,102151.50
2023-02-16T00:50:27.365Z,102156.66
2023-02-16T00:53:14.390Z,102155.09
2023-02-16T00:56:00.835Z,102153.13
2023-02-16T00:58:48.403Z,102151.75
2023-02-16T01:01:37.269Z,102145.66
2023-02-16T01:04:24.919Z,102143.03
2023-02-16T01:07:30.686Z,102134.97
2023-02-16T01:10:36.041Z,102147.16
2023-02-16T01:13:23.579Z,102152.75
2023-02-16T01:16:15.588Z,102151.06
2023-02-16T01:19:03.814Z,102140.84
2023-02-16T01:21:50.143Z,102136.88
2023-02-16T01:24:36.774Z,102132.13
2023-02-16T01:27:23.263Z,102131.28
2023-02-16T01:30:15.021Z,102132.63
2023-02-16T01:33:03.065Z,102130.03
2023-02-16T01:35:51.758Z,102130.66
2023-02-16T01:38:38.256Z,102136.66
2023-02-16T01:41:38.451Z,102124.84
2023-02-16T01:44:28.306Z,102128.88
2023-02-16T01:47:27.225Z,102122.41
2023-02-16T01:50:18.732Z,102126.06
2023-02-16T01:53:17.053Z,102127.66
2023-02-16T01:56:06.847Z,102118.16
2023-02-16T01:58:57.542Z,102116.69
2023-02-16T02:01:49.186Z,102105.34
2023-02-16T02:04:59.044Z,102104.38
2023-02-16T02:07:50.843Z,102108.50
2023-02-16T02:10:46.707Z,102107.06
2023-02-16T02:13:39.175Z,102107.88
2023-02-16T02:16:28.656Z,102097.75
2023-02-16T02:19:15.336Z,102098.00
2023-02-16T02:22:55.628Z,102085.91
2023-02-16T02:26:25.900Z,102085.19
2023-02-16T02:29:29.666Z,102081.75
2023-02-16T02:32:29.047Z,102084.06
2023-02-16T02:35:30.463Z,102081.88
2023-02-16T02:38:26.500Z,102085.19
2023-02-16T02:41:22.928Z,102087.63
2023-02-16T02:44:10.994Z,102080.81
2023-02-16T02:46:58.687Z,102071.50
2023-02-16T02:49:50.992Z,102076.53
2023-02-16T02:52:37.503Z,102068.44
2023-02-16T02:55:41.957Z,102071.13
2023-02-16T02:58:49.768Z,102064.53
2023-02-16T03:01:38.838Z,102058.94
2023-02-16T03:04:30.243Z,102066.75
2023-02-16T03:07:18.232Z,102050.75
2023-02-16T03:10:18.889Z,102048.56
2023-02-16T03:13:09.105Z,102046.69
2023-02-16T03:15:58.082Z,102038.03
2023-02-16T03:19:05.445Z,102040.97
2023-02-16T03:22:12.127Z,102032.13
2023-02-16T03:25:16.728Z,102032.91
2023-02-16T03:28:25.673Z,102034.34
2023-02-16T03:31:16.070Z,102028.44
2023-02-16T03:34:03.461Z,102030.41
2023-02-16T03:36:58.394Z,102035.78
2023-02-16T03:40:02.669Z,102027.22
2023-02-16T03:42:51.117Z,102034.03
2023-02-16T03:45:40.546Z,102035.66
2023-02-16T03:48:27.058Z,102034.03
2023-02-16T03:51:13.658Z,102047.63
2023-02-16T03:54:02.215Z,102061.44
2023-02-16T03:56:48.463Z,102062.91
2023-02-16T03:59:34.905Z,102059.44
2023-02-16T04:02:22.021Z,102053.44
2023-02-16T04:05:09.150Z,102049.63
2023-02-16T04:07:55.486Z,102049.97
2023-02-16T04:10:43.407Z,102044.72
2023-02-16T04:13:29.166Z,102047.28
2023-02-16T04:16:15.867Z,102039.59
2023-02-16T04:19:02.403Z,102039.59
2023-02-16T04:21:48.854Z,102038.38
2023-02-16T04:24:35.377Z,102040.91
2023-02-16T04:27:23.398Z,102037.78
2023-02-16T04:30:13.605Z,102048.00
2023-02-16T04:33:00.231Z,102044.22
2023-02-16T04:35:46.700Z,102048.25
2023-02-16T04:38:33.302Z,102035.16
2023-02-16T04:41:19.948Z,102044.16
2023-02-16T04:44:07.920Z,102045.53
2023-02-16T04:46:54.840Z,102044.88
2023-02-16T04:49:41.812Z,102036.09
2023-02-16T04:52:28.539Z,102039.97
2023-02-16T04:55:15.214Z,102044.38
2023-02-16T04:58:01.848Z,102032.38
2023-02-16T05:00:49.641Z,102050.84
2023-02-16T05:03:36.434Z,102047.09
2023-02-16T05:06:23.573Z,102039.19
2023-02-16T05:09:10.269Z,102030.09
2023-02-16T05:12:14.430Z,102026.13
2023-02-16T05:15:01.101Z,102029.63
2023-02-16T05:17:48.939Z,102028.75
2023-02-16T05:20:53.178Z,102026.50
2023-02-16T05:23:39.681Z,102024.84
2023-02-16T05:26:26.522Z,102026.06
2023-02-16T05:29:12.841Z,102015.75
2023-02-16T05:31:59.605Z,102020.41
2023-02-16T05:34:48.132Z,102026.25
2023-02-16T05:37:34.552Z,102023.38
2023-02-16T05:40:21.240Z,102014.84
2023-02-16T05:43:07.686Z,102013.53
2023-02-16T05:45:54.298Z,102006.97
2023-02-16T05:48:40.685Z,102023.19
2023-02-16T05:51:29.111Z,102023.91
2023-02-16T05:54:17.971Z,102019.22
2023-02-16T05:57:04.821Z,102013.53
2023-02-16T05:59:51.096Z,102007.69
2023-02-16T06:02:37.936Z,102016.59
2023-02-16T06:05:24.432Z,102017.94
2023-02-16T06:08:12.332Z,102016.88
2023-02-16T06:10:59.297Z,102016.59
2023-02-16T06:13:45.844Z,102018.66
2023-02-16T06:16:33.618Z,102017.00
2023-02-16T06:19:21.328Z,102016.44
2023-02-16T06:22:07.596Z,102019.63
2023-02-16T06:24:55.491Z,102015.50
2023-02-16T06:27:42.238Z,102021.38
2023-02-16T06:30:29.265Z,102028.69
2023-02-16T06:33:16.031Z,102021.56
2023-02-16T06:36:03.063Z,102032.94
2023-02-16T06:38:50.128Z,102032.34
2023-02-16T06:41:40.445Z,102021.88
2023-02-16T06:44:27.222Z,102017.63
2023-02-16T06:47:13.911Z,102012.94
2023-02-16T06:50:00.565Z,102026.06
2023-02-16T06:52:47.198Z,102022.31
2023-02-16T06:55:36.677Z,102027.09
2023-02-16T06:58:24.718Z,102024.28
2023-02-16T07:01:12.037Z,102025.19
2023-02-16T07:03:59.072Z,102028.28
2023-02-16T07:06:45.702Z,102024.72
2023-02-16T07:09:32.258Z,102034.81
2023-02-16T07:12:18.970Z,102025.56
2023-02-16T07:15:07.879Z,102034.47
2023-02-16T07:17:54.649Z,102037.25
2023-02-16T07:20:41.966Z,102039.56
2023-02-16T07:23:28.638Z,102035.84
2023-02-16T07:26:15.662Z,102039.59
2023-02-16T07:29:02.619Z,102042.38
2023-02-16T07:31:51.422Z,102049.19
2023-02-16T07:34:38.331Z,102053.72
2023-02-16T07:37:25.155Z,102046.75
2023-02-16T07:40:13.422Z,102045.16
2023-02-16T07:43:01.150Z,102055.38
2023-02-16T07:45:47.633Z,102058.50
2023-02-16T07:48:35.870Z,102063.91
2023-02-16T07:51:23.740Z,102060.50
2023-02-16T07:54:10.601Z,102061.28
2023-02-16T07:56:57.049Z,102060.00
2023-02-16T07:59:43.875Z,102064.66
2023-02-16T08:02:30.305Z,102068.06
2023-02-16T08:05:18.525Z,102071.66
2023-02-16T08:08:05.466Z,102068.97
2023-02-16T08:10:52.238Z,102073.59
2023-02-16T08:13:39.070Z,102067.13
2023-02-16T08:16:28.020Z,102070.13
2023-02-16T08:19:14.381Z,102071.72
2023-02-16T08:22:03.345Z,102080.28
2023-02-16T08:24:50.018Z,102072.63
2023-02-16T08:27:36.779Z,102080.25
2023-02-16T08:30:24.937Z,102081.31
2023-02-16T08:33:11.661Z,102080.72
2023-02-16T08:35:58.143Z,102076.66
2023-02-16T08:38:45.945Z,102090.56
2023-02-16T08:41:35.322Z,102085.50
2023-02-16T08:44:24.232Z,102091.41
2023-02-16T08:47:10.917Z,102097.47
2023-02-16T08:49:57.521Z,102094.69
2023-02-16T08:52:45.635Z,102097.66
2023-02-16T08:55:33.262Z,102093.09
2023-02-16T08:58:19.855Z,102100.72
2023-02-16T09:01:08.235Z,102097.34
2023-02-16T09:03:55.509Z,102106.91
2023-02-16T09:06:44.135Z,102109.25
2023-02-16T09:09:30.574Z,102127.47
2023-02-16T09:12:18.575Z,102119.91
2023-02-16T09:15:05.826Z,102132.34
2023-02-16T09:17:52.312Z,102124.53
2023-02-16T09:20:40.022Z,102122.72
2023-02-16T09:23:27.233Z,102114.97
2023-02-16T09:26:15.305Z,102129.97
2023-02-16T09:29:03.591Z,102136.84
2023-02-16T09:31:50.112Z,102131.59
2023-02-16T09:34:38.222Z,102142.06
2023-02-16T09:37:24.784Z,102151.69
2023-02-16T09:40:14.289Z,102146.16
2023-02-16T09:43:09.690Z,102156.50
2023-02-16T09:45:59.406Z,102127.88
2023-02-16T09:48:49.346Z,102130.56
2023-02-16T09:51:40.967Z,102141.72
2023-02-16T09:54:36.223Z,102147.31
2023-02-16T09:57:46.401Z,102156.69
2023-02-16T10:00:45.412Z,102160.09
2023-02-16T10:03:53.778Z,102167.03
2023-02-16T10:06:54.013Z,102172.69
2023-02-16T10:09:43.469Z,102166.69
2023-02-16T10:12:34.448Z,102167.88
2023-02-16T10:15:24.714Z,102177.81
2023-02-16T10:18:22.071Z,102184.06
2023-02-16T10:21:17.710Z,102168.22
2023-02-16T10:24:07.709Z,102165.25
2023-02-16T10:27:03.590Z,102176.94
2023-02-16T10:29:50.143Z,102172.53
2023-02-16T10:32:43.968Z,102163.88
2023-02-16T10:35:42.822Z,102162.44
2023-02-16T10:38:38.354Z,102152.19
2023-02-16T10:41:33.840Z,102149.38
2023-02-16T10:44:24.032Z,102149.78
2023-02-16T10:47:22.592Z,102142.97
2023-02-16T10:50:21.167Z,102140.56
2023-02-16T10:53:14.679Z,102132.44
2023-02-16T10:56:02.462Z,102134.56
2023-02-16T10:58:49.085Z,102121.47
2023-02-16T11:01:39.513Z,102121.13
2023-02-16T11:04:36.595Z,102098.53
2023-02-16T11:07:25.829Z,102103.25
2023-02-16T11:10:21.491Z,102101.38
2023-02-16T11:13:22.131Z,102094.91
2023-02-16T11:16:14.202Z,102105.75
2023-02-16T11:19:05.940Z,102097.53
2023-02-16T11:21:55.234Z,102101.22
2023-02-16T11:24:41.752Z,102107.81
2023-02-16T11:27:29.830Z,102106.75
2023-02-16T11:30:23.604Z,102105.19
2023-02-16T11:33:23.402Z,102093.31
2023-02-16T11:36:21.896Z,102099.69
2023-02-16T11:39:18.379Z,102098.03
2023-02-16T11:42:08.040Z,102087.63
2023-02-16T11:44:56.322Z,102080.63
2023-02-16T11:47:44.289Z,102075.03
2023-02-16T11:50:33.486Z,102069.47
2023-02-16T11:53:26.712Z,102059.50
2023-02-16T11:56:22.866Z,102053.25
2023-02-16T11:59:19.060Z,102041.50
2023-02-16T12:02:29.299Z,102049.41
2023-02-16T12:05:39.349Z,102043.91
2023-02-16T12:08:36.750Z,102040.19
2023-02-16T12:11:32.682Z,102018.50
2023-02-16T12:14:36.472Z,102026.44
2023-02-16T12:17:34.534Z,102027.47
2023-02-16T12:20:37.914Z,102025.72
2023-02-16T12:23:33.864Z,102012.72
2023-02-16T12:26:40.509Z,102006.63
2023-02-16T12:29:41.401Z,101991.06
2023-02-16T12:32:42.719Z,101981.97
2023-02-16T12:36:01.192Z,101980.81
2023-02-16T12:39:00.398Z,101976.53
2023-02-16T12:41:57.398Z,101971.31
2023-02-16T12:44:49.002Z,101969.00
2023-02-16T12:47:38.975Z,101956.25
2023-02-16T12:50:28.275Z,101953.63
2023-02-16T12:53:26.839Z,101947.88
2023-02-16T12:56:18.549Z,101934.84
2023-02-16T12:59:18.503Z,101937.16
2023-02-16T13:02:15.898Z,101927.66
2023-02-16T13:05:10.157Z,101923.72
2023-02-16T13:08:03.415Z,101914.06
2023-02-16T13:10:59.555Z,101919.19
2023-02-16T13:13:48.870Z,101907.28
2023-02-16T13:16:43.667Z,101912.72
2023-02-16T13:19:30.237Z,101919.34
2023-02-16T13:22:42.430Z,101905.81
2023-02-16T13:25:42.453Z,101910.03
2023-02-16T13:28:46.906Z,101897.16
2023-02-16T13:31:47.348Z,101890.84
2023-02-16T13:35:18.280Z,101877.97
2023-02-16T13:38:15.847Z,101874.75
2023-02-16T13:41:32.301Z,101870.00
2023-02-16T13:44:21.931Z,101859.00
2023-02-16T13:47:14.025Z,101859.78
2023-02-16T13:50:02.887Z,101851.31
2023-02-16T13:52:50.787Z,101851.81
2023-02-16T13:55:40.140Z,101850.66
2023-02-16T13:58:34.059Z,101849.25
2023-02-16T14:01:42.965Z,101847.94
2023-02-16T14:05:05.309Z,101848.53
2023-02-16T14:08:10.947Z,101846.88
2023-02-16T14:11:12.030Z,101846.38
2023-02-16T14:13:58.705Z,101842.16
2023-02-16T14:16:46.667Z,101856.09
2023-02-16T14:19:33.930Z,101851.97
2023-02-16T14:22:23.006Z,101837.53
2023-02-16T14:25:37.916Z,101842.59
2023-02-16T14:29:07.633Z,101836.19
2023-02-16T14:32:00.380Z,101819.22
2023-02-16T14:34:53.689Z,101826.97
2023-02-16T14:37:45.435Z,101828.09
2023-02-16T14:40:51.873Z,101827.38
2023-02-16T14:43:42.424Z,101806.56
2023-02-16T14:46:45.071Z,101811.75
2023-02-16T14:50:03.759Z,101814.47
2023-02-16T14:53:27.438Z,101819.53
2023-02-16T14:56:28.410Z,101822.78
2023-02-16T14:59:29.172Z,101821.28
2023-02-16T15:02:28.292Z,101833.16
2023-02-16T15:05:18.797Z,101830.09
2023-02-16T15:08:11.067Z,101828.09
2023-02-16T15:10:58.030Z,101829.66
2023-02-16T15:13:45.672Z,101837.78
2023-02-16T15:16:33.590Z,101837.94
2023-02-16T15:19:29.423Z,101845.25
2023-02-16T15:22:22.572Z,101849.13
2023-02-16T15:25:23.432Z,101853.16
2023-02-16T15:28:21.877Z,101859.22
2023-02-16T15:31:18.096Z,101868.66
2023-02-16T15:34:07.530Z,101880.66
2023-02-16T15:36:54.076Z,101892.63
2023-02-16T15:39:53.495Z,101890.22
2023-02-16T15:42:45.280Z,101894.06
2023-02-16T15:45:35.230Z,101895.78
2023-02-16T15:48:29.322Z,101909.31
2023-02-16T15:51:19.476Z,101910.50
2023-02-16T15:54:08.892Z,101910.34
2023-02-16T15:56:59.584Z,101907.72
2023-02-16T15:59:48.607Z,101912.13
2023-02-16T16:02:39.382Z,101921.56
2023-02-16T16:05:29.659Z,101924.56
2023-02-16T16:08:18.272Z,101931.47
2023-02-16T16:11:05.974Z,101929.16
2023-02-16T16:13:54.551Z,101924.69
2023-02-16T16:16:41.833Z,101943.94
2023-02-16T16:19:34.324Z,101927.47
2023-02-16T16:22:34.312Z,101932.00
2023-02-16T16:25:37.760Z,101930.63
2023-02-16T16:28:37.869Z,101928.47
2023-02-16T16:31:40.881Z,101933.50
2023-02-16T16:34:36.843Z,101940.44
2023-02-16T16:37:28.389Z,101944.47
2023-02-16T16:40:23.789Z,101955.84
2023-02-16T16:43:18.317Z,101959.38
2023-02-16T16:46:14.736Z,101968.59
2023-02-16T16:49:04.459Z,101955.28
2023-02-16T16:51:53.669Z,101959.72
2023-02-16T16:54:40.579Z,101958.16
2023-02-16T16:57:27.211Z,101964.06
2023-02-16T17:00:15.777Z,101965.66
2023-02-16T17:03:04.223Z,101963.25
2023-02-16T17:05:51.885Z,101963.19
2023-02-16T17:08:38.616Z,101970.38
2023-02-16T17:11:27.479Z,101971.75
2023-02-16T17:14:18.396Z,101975.84
2023-02-16T17:17:06.092Z,101970.84
2023-02-16T17:19:52.713Z,101983.38
2023-02-16T17:22:40.604Z,101991.00
2023-02-16T17:25:27.335Z,101987.00
2023-02-16T17:28:15.477Z,101998.03
2023-02-16T17:31:01.812Z,101986.38
2023-02-16T17:33:48.350Z,101986.66
2023-02-16T17:36:36.003Z,101988.53
2023-02-16T17:39:23.870Z,101995.13
2023-02-16T17:42:12.456Z,102002.06
2023-02-16T17:44:59.105Z,101999.06
2023-02-16T17:47:46.409Z,102002.53
2023-02-16T17:50:33.044Z,102023.34
2023-02-16T17:53:21.563Z,102034.47
2023-02-16T17:56:12.137Z,102038.88
2023-02-16T17:58:58.298Z,102056.44
2023-02-16T18:01:44.959Z,102076.38
2023-02-16T18:04:31.720Z,102080.16
2023-02-16T18:07:19.152Z,102092.84
2023-02-16T18:10:07.061Z,102118.91
2023-02-16T18:12:54.903Z,102129.41
2023-02-16T18:15:45.265Z,102142.41
2023-02-16T18:18:34.709Z,102158.41
2023-02-16T18:21:21.464Z,102168.97
2023-02-16T18:24:08.273Z,102188.03
2023-02-16T18:26:55.642Z,102204.09
2023-02-16T18:29:43.731Z,102209.63
2023-02-16T18:32:30.196Z,102210.03
2023-02-16T18:35:18.414Z,102227.69
2023-02-16T18:38:05.009Z,102245.50
2023-02-16T18:40:52.902Z,102257.03
2023-02-16T18:43:39.696Z,102279.31
2023-02-16T18:46:27.707Z,102285.97
2023-02-16T18:49:14.489Z,102294.53
2023-02-16T18:52:01.051Z,102313.88
2023-02-16T18:54:47.631Z,102324.16
2023-02-16T18:57:34.466Z,102333.78
2023-02-16T19:00:21.821Z,102352.34
2023-02-16T19:03:10.254Z,102354.91
2023-02-16T19:05:56.735Z,102372.03
2023-02-16T19:08:43.297Z,102395.69
2023-02-16T19:11:30.767Z,102525.72
2023-02-16T19:14:18.600Z,102579.75
2023-02-16T19:17:05.176Z,102573.75
2023-02-16T19:19:53.234Z,102587.84
2023-02-16T19:22:39.974Z,102600.38
2023-02-16T19:25:27.129Z,102602.53
2023-02-16T19:28:13.251Z,102595.56
2023-02-16T19:31:01.956Z,102584.28
2023-02-16T19:33:49.596Z,102596.41
2023-02-16T19:36:37.542Z,102592.41
2023-02-16T19:39:24.109Z,102592.25
2023-02-16T19:42:10.796Z,102599.38
2023-02-16T19:45:00.458Z,102582.72
2023-02-16T19:47:47.090Z,102576.72
2023-02-16T19:50:33.631Z,102579.44
2023-02-16T19:53:21.617Z,102576.03
2023-02-16T19:56:10.603Z,102582.28
2023-02-16T19:58:58.290Z,102594.72
2023-02-16T20:01:44.618Z,102595.69
2023-02-16T20:04:31.213Z,102592.13
2023-02-16T20:07:17.684Z,102600.69
2023-02-16T20:10:06.475Z,102591.84
2023-02-16T20:12:52.872Z,102584.72
2023-02-16T20:15:39.683Z,102575.59
2023-02-16T20:18:26.406Z,102583.41
2023-02-16T20:21:15.139Z,102591.41
2023-02-16T20:24:04.591Z,102589.69
2023-02-16T20:26:53.016Z,102587.00
2023-02-16T20:29:39.753Z,102599.41
2023-02-16T20:32:26.953Z,102606.78
2023-02-16T20:35:13.869Z,102599.25
2023-02-16T20:38:00.596Z,102619.63
2023-02-16T20:40:47.505Z,102605.94
2023-02-16T20:43:36.131Z,102615.34
2023-02-16T20:46:23.942Z,102609.63
2023-02-16T20:49:10.692Z,102620.19
2023-02-16T20:51:57.200Z,102622.91
2023-02-16T20:54:44.139Z,102618.78
2023-02-16T20:57:30.826Z,102621.91
2023-02-16T21:00:21.726Z,102621.31
2023-02-16T21:03:08.407Z,102617.75
2023-02-16T21:05:55.278Z,102626.34
2023-02-16T21:08:41.643Z,102622.63
2023-02-16T21:11:28.207Z,102626.75
2023-02-16T21:14:14.814Z,102636.56
2023-02-16T21:17:02.691Z,102621.03
2023-02-16T21:19:49.668Z,102618.03
2023-02-16T21:22:36.028Z,102620.75
2023-02-16T21:25:22.437Z,102621.03
2023-02-16T21:28:08.964Z,102626.75
2023-02-16T21:30:55.574Z,102621.75
2023-02-16T21:33:43.613Z,102614.50
2023-02-16T21:36:29.996Z,102609.06
2023-02-16T21:39:16.735Z,102608.09
2023-02-16T21:42:02.196Z,102610.34
2023-02-16T21:44:50.038Z,102607.94
2023-02-16T21:47:54.712Z,102607.34
2023-02-16T21:50:43.175Z,102599.66
2023-02-16T21:53:30.628Z,102590.97
2023-02-16T21:56:27.139Z,102588.81
2023-02-16T21:59:15.335Z,102586.94
2023-02-16T22:02:01.931Z,102586.09
2023-02-16T22:04:49.638Z,102583.09
2023-02-16T22:07:37.497Z,102565.69
2023-02-16T22:10:24.137Z,102562.44
2023-02-16T22:13:11.039Z,102569.72
2023-02-16T22:15:57.382Z,102554.75
2023-02-16T22:18:44.318Z,102556.16
2023-02-16T22:21:31.809Z,102555.03
2023-02-16T22:24:21.120Z,102563.72
2023-02-16T22:27:07.786Z,102568.56
2023-02-16T22:29:54.272Z,102552.75
2023-02-16T22:32:41.047Z,102552.59
2023-02-16T22:35:27.534Z,102561.00
2023-02-16T22:38:14.057Z,102564.88
2023-02-16T22:41:05.403Z,102547.63
2023-02-16T22:43:53.930Z,102534.81
2023-02-16T22:46:40.672Z,102544.66
2023-02-16T22:49:27.259Z,102530.56
2023-02-16T22:52:13.863Z,102539.25
2023-02-16T22:55:00.335Z,102537.50
2023-02-16T22:57:48.830Z,102539.25
2023-02-16T23:03:46.822Z,102535.91
2023-02-16T23:06:36.508Z,102530.78
2023-02-16T23:09:23.617Z,102530.66
2023-02-16T23:12:10.624Z,102528.09
2023-02-16T23:14:58.483Z,102518.56
2023-02-16T23:17:45.184Z,102522.50
2023-02-16T23:20:31.630Z,102516.94
2023-02-16T23:23:18.084Z,102520.66
2023-02-16T23:26:07.206Z,102517.72
2023-02-16T23:28:56.007Z,102517.81
2023-02-16T23:31:46.667Z,102522.25
2023-02-16T23:34:33.495Z,102521.34
2023-02-16T23:37:19.994Z,102522.47
2023-02-16T23:40:08.287Z,102512.25
2023-02-16T23:42:54.674Z,102511.53
2023-02-16T23:45:41.300Z,102498.69
2023-02-16T23:48:30.497Z,102499.66
2023-02-16T23:51:17.436Z,102490.03
2023-02-16T23:54:04.157Z,102488.88
2023-02-16T23:56:52.785Z,102493.28
2023-02-16T23:59:39.635Z,102490.31
